sensor_id;sensor_type;location;lat;lon;timestamp;P1;durP1;ratioP1;P2;durP2;ratioP2
29218;SDS011;16421;50.202;7.852;2024-01-07T00:00:56;7.65;;;5.25;;
29218;SDS011;16421;50.202;7.852;2024-01-07T00:05:59;8.82;;;6.07;;
29218;SDS011;16421;50.202;7.852;2024-01-07T00:11:04;10.48;;;6.68;;
29218;SDS011;16421;50.202;7.852;2024-01-07T00:16:07;7.03;;;4.93;;
29218;SDS011;16421;50.202;7.852;2024-01-07T00:21:11;7.82;;;5.78;;
29218;SDS011;16421;50.202;7.852;2024-01-07T00:26:15;7.32;;;5.10;;
29218;SDS011;16421;50.202;7.852;2024-01-07T00:31:19;8.75;;;6.55;;
29218;SDS011;16421;50.202;7.852;2024-01-07T00:36:22;7.78;;;5.93;;
29218;SDS011;16421;50.202;7.852;2024-01-07T00:41:27;10.70;;;7.50;;
29218;SDS011;16421;50.202;7.852;2024-01-07T00:46:31;9.80;;;6.00;;
29218;SDS011;16421;50.202;7.852;2024-01-07T00:51:34;8.95;;;6.40;;
29218;SDS011;16421;50.202;7.852;2024-01-07T00:56:39;10.73;;;7.05;;
29218;SDS011;16421;50.202;7.852;2024-01-07T01:01:42;8.75;;;6.03;;
29218;SDS011;16421;50.202;7.852;2024-01-07T01:06:46;8.70;;;6.53;;
29218;SDS011;16421;50.202;7.852;2024-01-07T01:11:50;10.18;;;6.65;;
29218;SDS011;16421;50.202;7.852;2024-01-07T01:16:54;8.15;;;5.93;;
29218;SDS011;16421;50.202;7.852;2024-01-07T01:21:57;7.50;;;5.07;;
29218;SDS011;16421;50.202;7.852;2024-01-07T01:27:02;7.00;;;4.65;;
29218;SDS011;16421;50.202;7.852;2024-01-07T01:32:06;6.18;;;4.13;;
29218;SDS011;16421;50.202;7.852;2024-01-07T01:37:09;4.50;;;3.75;;
29218;SDS011;16421;50.202;7.852;2024-01-07T01:42:14;7.90;;;5.00;;
29218;SDS011;16421;50.202;7.852;2024-01-07T01:47:17;6.20;;;4.20;;
29218;SDS011;16421;50.202;7.852;2024-01-07T01:52:21;5.10;;;3.85;;
29218;SDS011;16421;50.202;7.852;2024-01-07T01:57:28;7.20;;;4.03;;
29218;SDS011;16421;50.202;7.852;2024-01-07T02:02:35;7.25;;;4.85;;
29218;SDS011;16421;50.202;7.852;2024-01-07T02:07:38;8.18;;;6.03;;
29218;SDS011;16421;50.202;7.852;2024-01-07T02:12:42;8.38;;;5.68;;
29218;SDS011;16421;50.202;7.852;2024-01-07T02:17:46;8.07;;;6.10;;
29218;SDS011;16421;50.202;7.852;2024-01-07T02:22:49;8.18;;;5.97;;
29218;SDS011;16421;50.202;7.852;2024-01-07T02:27:54;6.75;;;4.93;;
29218;SDS011;16421;50.202;7.852;2024-01-07T02:33:00;8.18;;;5.68;;
29218;SDS011;16421;50.202;7.852;2024-01-07T02:38:04;9.13;;;6.32;;
29218;SDS011;16421;50.202;7.852;2024-01-07T02:43:09;10.00;;;6.90;;
29218;SDS011;16421;50.202;7.852;2024-01-07T02:48:12;9.60;;;5.63;;
29218;SDS011;16421;50.202;7.852;2024-01-07T02:53:15;7.05;;;5.15;;
29218;SDS011;16421;50.202;7.852;2024-01-07T02:58:20;10.13;;;6.40;;
29218;SDS011;16421;50.202;7.852;2024-01-07T03:03:24;8.55;;;5.57;;
29218;SDS011;16421;50.202;7.852;2024-01-07T03:08:27;8.93;;;5.72;;
29218;SDS011;16421;50.202;7.852;2024-01-07T03:13:31;8.57;;;5.50;;
29218;SDS011;16421;50.202;7.852;2024-01-07T03:18:35;8.77;;;5.85;;
29218;SDS011;16421;50.202;7.852;2024-01-07T03:23:38;8.55;;;5.70;;
29218;SDS011;16421;50.202;7.852;2024-01-07T03:28:42;7.72;;;5.05;;
29218;SDS011;16421;50.202;7.852;2024-01-07T03:33:46;7.00;;;4.47;;
29218;SDS011;16421;50.202;7.852;2024-01-07T03:38:49;6.97;;;4.57;;
29218;SDS011;16421;50.202;7.852;2024-01-07T03:43:55;7.57;;;4.63;;
29218;SDS011;16421;50.202;7.852;2024-01-07T03:48:58;8.35;;;5.00;;
29218;SDS011;16421;50.202;7.852;2024-01-07T03:54:01;7.68;;;4.93;;
29218;SDS011;16421;50.202;7.852;2024-01-07T03:59:06;7.78;;;4.85;;
29218;SDS011;16421;50.202;7.852;2024-01-07T04:04:09;7.85;;;4.35;;
29218;SDS011;16421;50.202;7.852;2024-01-07T04:09:12;9.15;;;5.25;;
29218;SDS011;16421;50.202;7.852;2024-01-07T04:14:17;6.50;;;4.25;;
29218;SDS011;16421;50.202;7.852;2024-01-07T04:19:20;9.18;;;5.22;;
29218;SDS011;16421;50.202;7.852;2024-01-07T04:24:24;8.85;;;5.13;;
29218;SDS011;16421;50.202;7.852;2024-01-07T04:29:28;6.93;;;3.97;;
29218;SDS011;16421;50.202;7.852;2024-01-07T04:34:31;8.73;;;5.85;;
29218;SDS011;16421;50.202;7.852;2024-01-07T04:39:35;6.90;;;4.20;;
29218;SDS011;16421;50.202;7.852;2024-01-07T04:44:39;7.68;;;4.35;;
29218;SDS011;16421;50.202;7.852;2024-01-07T04:49:42;7.15;;;4.63;;
29218;SDS011;16421;50.202;7.852;2024-01-07T04:54:45;6.70;;;4.18;;
29218;SDS011;16421;50.202;7.852;2024-01-07T04:59:50;7.40;;;4.32;;
29218;SDS011;16421;50.202;7.852;2024-01-07T05:10:01;6.78;;;4.55;;
29218;SDS011;16421;50.202;7.852;2024-01-07T05:15:07;8.82;;;5.65;;
29218;SDS011;16421;50.202;7.852;2024-01-07T05:20:11;6.97;;;4.57;;
29218;SDS011;16421;50.202;7.852;2024-01-07T05:25:17;5.17;;;3.60;;
29218;SDS011;16421;50.202;7.852;2024-01-07T05:30:21;6.07;;;3.67;;
29218;SDS011;16421;50.202;7.852;2024-01-07T05:35:24;4.50;;;3.45;;
29218;SDS011;16421;50.202;7.852;2024-01-07T05:40:28;5.70;;;3.75;;
29218;SDS011;16421;50.202;7.852;2024-01-07T05:45:32;5.03;;;3.70;;
29218;SDS011;16421;50.202;7.852;2024-01-07T05:50:35;4.47;;;2.78;;
29218;SDS011;16421;50.202;7.852;2024-01-07T05:55:39;5.78;;;3.08;;
29218;SDS011;16421;50.202;7.852;2024-01-07T06:00:43;4.00;;;2.78;;
29218;SDS011;16421;50.202;7.852;2024-01-07T06:05:46;3.47;;;2.53;;
29218;SDS011;16421;50.202;7.852;2024-01-07T06:10:50;3.95;;;2.83;;
29218;SDS011;16421;50.202;7.852;2024-01-07T06:15:54;3.60;;;2.95;;
29218;SDS011;16421;50.202;7.852;2024-01-07T06:20:58;3.08;;;2.33;;
29218;SDS011;16421;50.202;7.852;2024-01-07T06:26:02;4.45;;;2.58;;
29218;SDS011;16421;50.202;7.852;2024-01-07T06:31:07;2.33;;;1.88;;
29218;SDS011;16421;50.202;7.852;2024-01-07T06:36:10;3.15;;;2.08;;
29218;SDS011;16421;50.202;7.852;2024-01-07T06:41:14;3.60;;;2.75;;
29218;SDS011;16421;50.202;7.852;2024-01-07T06:46:18;2.33;;;2.00;;
29218;SDS011;16421;50.202;7.852;2024-01-07T06:51:22;2.97;;;2.42;;
29218;SDS011;16421;50.202;7.852;2024-01-07T06:56:25;3.17;;;2.20;;
29218;SDS011;16421;50.202;7.852;2024-01-07T07:01:29;3.75;;;2.67;;
29218;SDS011;16421;50.202;7.852;2024-01-07T07:06:33;3.20;;;2.30;;
29218;SDS011;16421;50.202;7.852;2024-01-07T07:11:36;1.90;;;1.63;;
29218;SDS011;16421;50.202;7.852;2024-01-07T07:16:41;2.38;;;1.90;;
29218;SDS011;16421;50.202;7.852;2024-01-07T07:21:44;2.15;;;1.85;;
29218;SDS011;16421;50.202;7.852;2024-01-07T07:26:47;4.00;;;2.38;;
29218;SDS011;16421;50.202;7.852;2024-01-07T07:31:52;2.75;;;1.92;;
29218;SDS011;16421;50.202;7.852;2024-01-07T07:36:55;2.17;;;1.85;;
29218;SDS011;16421;50.202;7.852;2024-01-07T07:41:59;3.97;;;2.65;;
29218;SDS011;16421;50.202;7.852;2024-01-07T07:47:04;5.22;;;3.80;;
29218;SDS011;16421;50.202;7.852;2024-01-07T07:52:09;4.18;;;2.95;;
29218;SDS011;16421;50.202;7.852;2024-01-07T07:57:15;5.35;;;3.80;;
29218;SDS011;16421;50.202;7.852;2024-01-07T08:02:20;5.40;;;3.25;;
29218;SDS011;16421;50.202;7.852;2024-01-07T08:07:23;6.78;;;4.30;;
29218;SDS011;16421;50.202;7.852;2024-01-07T08:12:27;5.50;;;3.70;;
29218;SDS011;16421;50.202;7.852;2024-01-07T08:17:31;6.50;;;4.07;;
29218;SDS011;16421;50.202;7.852;2024-01-07T08:22:35;4.20;;;3.30;;
29218;SDS011;16421;50.202;7.852;2024-01-07T08:27:40;5.15;;;3.60;;
29218;SDS011;16421;50.202;7.852;2024-01-07T08:32:46;5.55;;;3.58;;
29218;SDS011;16421;50.202;7.852;2024-01-07T08:37:49;6.53;;;3.78;;
29218;SDS011;16421;50.202;7.852;2024-01-07T08:42:53;4.30;;;3.15;;
29218;SDS011;16421;50.202;7.852;2024-01-07T08:47:57;5.75;;;3.97;;
29218;SDS011;16421;50.202;7.852;2024-01-07T08:53:00;5.88;;;4.30;;
29218;SDS011;16421;50.202;7.852;2024-01-07T08:58:05;6.82;;;4.45;;
29218;SDS011;16421;50.202;7.852;2024-01-07T09:03:10;6.90;;;4.85;;
29218;SDS011;16421;50.202;7.852;2024-01-07T09:08:13;6.57;;;4.63;;
29218;SDS011;16421;50.202;7.852;2024-01-07T09:13:16;7.28;;;4.97;;
29218;SDS011;16421;50.202;7.852;2024-01-07T09:18:21;7.07;;;5.15;;
29218;SDS011;16421;50.202;7.852;2024-01-07T09:23:24;8.23;;;5.20;;
29218;SDS011;16421;50.202;7.852;2024-01-07T09:28:27;8.95;;;5.90;;
29218;SDS011;16421;50.202;7.852;2024-01-07T09:33:32;11.02;;;6.80;;
29218;SDS011;16421;50.202;7.852;2024-01-07T09:38:35;11.18;;;7.15;;
29218;SDS011;16421;50.202;7.852;2024-01-07T09:43:39;8.48;;;5.70;;
29218;SDS011;16421;50.202;7.852;2024-01-07T09:48:43;7.68;;;5.10;;
29218;SDS011;16421;50.202;7.852;2024-01-07T09:53:47;9.43;;;6.47;;
29218;SDS011;16421;50.202;7.852;2024-01-07T09:58:55;7.38;;;5.22;;
29218;SDS011;16421;50.202;7.852;2024-01-07T10:03:59;6.85;;;4.63;;
29218;SDS011;16421;50.202;7.852;2024-01-07T10:09:02;7.25;;;4.75;;
29218;SDS011;16421;50.202;7.852;2024-01-07T10:14:07;7.35;;;5.00;;
29218;SDS011;16421;50.202;7.852;2024-01-07T10:19:14;9.48;;;5.68;;
29218;SDS011;16421;50.202;7.852;2024-01-07T10:24:23;6.93;;;4.68;;
29218;SDS011;16421;50.202;7.852;2024-01-07T10:29:26;6.07;;;4.10;;
29218;SDS011;16421;50.202;7.852;2024-01-07T10:34:32;6.18;;;4.47;;
29218;SDS011;16421;50.202;7.852;2024-01-07T10:39:36;7.53;;;4.77;;
29218;SDS011;16421;50.202;7.852;2024-01-07T10:44:39;6.25;;;4.70;;
29218;SDS011;16421;50.202;7.852;2024-01-07T10:49:44;9.15;;;5.70;;
29218;SDS011;16421;50.202;7.852;2024-01-07T10:54:49;6.57;;;4.57;;
29218;SDS011;16421;50.202;7.852;2024-01-07T10:59:52;6.38;;;3.95;;
29218;SDS011;16421;50.202;7.852;2024-01-07T11:05:00;4.80;;;3.70;;
29218;SDS011;16421;50.202;7.852;2024-01-07T11:10:12;4.93;;;3.63;;
29218;SDS011;16421;50.202;7.852;2024-01-07T11:20:59;6.18;;;4.45;;
29218;SDS011;16421;50.202;7.852;2024-01-07T11:26:03;5.85;;;4.22;;
29218;SDS011;16421;50.202;7.852;2024-01-07T11:31:07;5.78;;;4.45;;
29218;SDS011;16421;50.202;7.852;2024-01-07T11:36:12;5.05;;;4.05;;
29218;SDS011;16421;50.202;7.852;2024-01-07T11:41:16;4.53;;;3.43;;
29218;SDS011;16421;50.202;7.852;2024-01-07T11:46:22;6.65;;;4.30;;
29218;SDS011;16421;50.202;7.852;2024-01-07T11:51:27;5.38;;;4.03;;
29218;SDS011;16421;50.202;7.852;2024-01-07T12:01:35;6.40;;;3.67;;
29218;SDS011;16421;50.202;7.852;2024-01-07T12:06:39;6.85;;;4.75;;
29218;SDS011;16421;50.202;7.852;2024-01-07T12:11:43;5.65;;;3.75;;
29218;SDS011;16421;50.202;7.852;2024-01-07T12:16:50;6.07;;;4.30;;
29218;SDS011;16421;50.202;7.852;2024-01-07T12:22:02;7.10;;;3.97;;
29218;SDS011;16421;50.202;7.852;2024-01-07T12:27:05;5.55;;;4.30;;
29218;SDS011;16421;50.202;7.852;2024-01-07T12:32:09;6.10;;;4.68;;
29218;SDS011;16421;50.202;7.852;2024-01-07T12:37:14;6.18;;;4.88;;
29218;SDS011;16421;50.202;7.852;2024-01-07T12:42:17;7.00;;;4.95;;
29218;SDS011;16421;50.202;7.852;2024-01-07T12:47:22;6.47;;;4.40;;
29218;SDS011;16421;50.202;7.852;2024-01-07T12:52:27;5.40;;;3.80;;
29218;SDS011;16421;50.202;7.852;2024-01-07T12:57:30;5.43;;;3.70;;
29218;SDS011;16421;50.202;7.852;2024-01-07T13:02:33;7.45;;;4.97;;
29218;SDS011;16421;50.202;7.852;2024-01-07T13:07:39;6.75;;;4.93;;
29218;SDS011;16421;50.202;7.852;2024-01-07T13:12:44;8.93;;;5.45;;
29218;SDS011;16421;50.202;7.852;2024-01-07T13:17:47;9.75;;;5.72;;
29218;SDS011;16421;50.202;7.852;2024-01-07T13:22:53;9.13;;;5.65;;
29218;SDS011;16421;50.202;7.852;2024-01-07T13:27:56;7.40;;;5.25;;
29218;SDS011;16421;50.202;7.852;2024-01-07T13:33:00;6.53;;;4.97;;
29218;SDS011;16421;50.202;7.852;2024-01-07T13:38:08;10.05;;;5.53;;
29218;SDS011;16421;50.202;7.852;2024-01-07T13:43:12;7.57;;;5.35;;
29218;SDS011;16421;50.202;7.852;2024-01-07T13:48:15;6.78;;;4.28;;
29218;SDS011;16421;50.202;7.852;2024-01-07T13:53:20;9.02;;;5.50;;
29218;SDS011;16421;50.202;7.852;2024-01-07T13:58:23;7.63;;;4.80;;
29218;SDS011;16421;50.202;7.852;2024-01-07T14:03:27;8.75;;;4.93;;
29218;SDS011;16421;50.202;7.852;2024-01-07T14:08:32;6.43;;;4.05;;
29218;SDS011;16421;50.202;7.852;2024-01-07T14:13:35;7.80;;;5.22;;
29218;SDS011;16421;50.202;7.852;2024-01-07T14:18:39;8.35;;;5.70;;
29218;SDS011;16421;50.202;7.852;2024-01-07T14:23:43;6.68;;;4.53;;
29218;SDS011;16421;50.202;7.852;2024-01-07T14:28:47;9.18;;;5.47;;
29218;SDS011;16421;50.202;7.852;2024-01-07T14:33:52;9.07;;;5.65;;
29218;SDS011;16421;50.202;7.852;2024-01-07T14:38:57;5.93;;;4.10;;
29218;SDS011;16421;50.202;7.852;2024-01-07T14:44:00;7.85;;;4.50;;
29218;SDS011;16421;50.202;7.852;2024-01-07T14:54:11;6.32;;;4.28;;
29218;SDS011;16421;50.202;7.852;2024-01-07T14:59:14;7.70;;;5.10;;
29218;SDS011;16421;50.202;7.852;2024-01-07T15:04:17;8.35;;;4.40;;
29218;SDS011;16421;50.202;7.852;2024-01-07T15:09:22;4.90;;;3.55;;
29218;SDS011;16421;50.202;7.852;2024-01-07T15:14:25;6.70;;;4.05;;
29218;SDS011;16421;50.202;7.852;2024-01-07T15:19:29;7.28;;;3.53;;
29218;SDS011;16421;50.202;7.852;2024-01-07T15:24:33;3.63;;;3.03;;
29218;SDS011;16421;50.202;7.852;2024-01-07T15:29:37;5.57;;;3.42;;
29218;SDS011;16421;50.202;7.852;2024-01-07T15:34:41;7.85;;;3.78;;
29218;SDS011;16421;50.202;7.852;2024-01-07T15:39:45;6.72;;;4.20;;
29218;SDS011;16421;50.202;7.852;2024-01-07T15:44:49;5.03;;;3.63;;
29218;SDS011;16421;50.202;7.852;2024-01-07T15:49:52;4.45;;;3.55;;
29218;SDS011;16421;50.202;7.852;2024-01-07T15:54:58;6.68;;;4.10;;
29218;SDS011;16421;50.202;7.852;2024-01-07T16:00:01;4.13;;;2.83;;
29218;SDS011;16421;50.202;7.852;2024-01-07T16:05:06;3.50;;;2.35;;
29218;SDS011;16421;50.202;7.852;2024-01-07T16:10:11;3.75;;;2.75;;
29218;SDS011;16421;50.202;7.852;2024-01-07T16:15:14;4.35;;;2.83;;
29218;SDS011;16421;50.202;7.852;2024-01-07T16:20:18;3.95;;;2.70;;
29218;SDS011;16421;50.202;7.852;2024-01-07T16:25:22;3.88;;;2.55;;
29218;SDS011;16421;50.202;7.852;2024-01-07T16:30:25;4.03;;;2.50;;
29218;SDS011;16421;50.202;7.852;2024-01-07T16:35:29;3.65;;;2.67;;
29218;SDS011;16421;50.202;7.852;2024-01-07T16:40:34;3.03;;;2.47;;
29218;SDS011;16421;50.202;7.852;2024-01-07T16:45:38;3.13;;;2.33;;
29218;SDS011;16421;50.202;7.852;2024-01-07T16:50:43;2.55;;;2.05;;
29218;SDS011;16421;50.202;7.852;2024-01-07T16:55:52;2.47;;;1.65;;
29218;SDS011;16421;50.202;7.852;2024-01-07T17:00:56;3.15;;;2.05;;
29218;SDS011;16421;50.202;7.852;2024-01-07T17:06:00;4.05;;;2.00;;
29218;SDS011;16421;50.202;7.852;2024-01-07T17:11:06;3.92;;;2.50;;
29218;SDS011;16421;50.202;7.852;2024-01-07T17:16:09;2.80;;;1.80;;
29218;SDS011;16421;50.202;7.852;2024-01-07T17:21:13;2.58;;;1.63;;
29218;SDS011;16421;50.202;7.852;2024-01-07T17:26:18;1.85;;;1.48;;
29218;SDS011;16421;50.202;7.852;2024-01-07T17:31:21;1.63;;;1.30;;
29218;SDS011;16421;50.202;7.852;2024-01-07T17:36:25;2.58;;;1.90;;
29218;SDS011;16421;50.202;7.852;2024-01-07T17:41:29;2.13;;;1.70;;
29218;SDS011;16421;50.202;7.852;2024-01-07T17:46:33;2.77;;;1.50;;
29218;SDS011;16421;50.202;7.852;2024-01-07T17:51:37;1.55;;;1.20;;
29218;SDS011;16421;50.202;7.852;2024-01-07T17:56:46;3.63;;;1.80;;
29218;SDS011;16421;50.202;7.852;2024-01-07T18:01:49;2.53;;;1.52;;
29218;SDS011;16421;50.202;7.852;2024-01-07T18:06:54;2.72;;;2.15;;
29218;SDS011;16421;50.202;7.852;2024-01-07T18:11:58;2.42;;;1.77;;
29218;SDS011;16421;50.202;7.852;2024-01-07T18:17:01;2.47;;;2.03;;
29218;SDS011;16421;50.202;7.852;2024-01-07T18:22:05;3.08;;;1.90;;
29218;SDS011;16421;50.202;7.852;2024-01-07T18:27:09;3.10;;;1.80;;
29218;SDS011;16421;50.202;7.852;2024-01-07T18:32:13;2.95;;;1.73;;
29218;SDS011;16421;50.202;7.852;2024-01-07T18:37:16;2.70;;;2.00;;
29218;SDS011;16421;50.202;7.852;2024-01-07T18:42:23;3.15;;;2.17;;
29218;SDS011;16421;50.202;7.852;2024-01-07T18:47:26;1.95;;;1.73;;
29218;SDS011;16421;50.202;7.852;2024-01-07T18:52:29;2.00;;;1.80;;
29218;SDS011;16421;50.202;7.852;2024-01-07T18:57:34;3.28;;;1.73;;
29218;SDS011;16421;50.202;7.852;2024-01-07T19:02:37;4.88;;;1.83;;
29218;SDS011;16421;50.202;7.852;2024-01-07T19:07:41;2.30;;;1.63;;
29218;SDS011;16421;50.202;7.852;2024-01-07T19:12:46;2.15;;;1.70;;
29218;SDS011;16421;50.202;7.852;2024-01-07T19:17:49;2.80;;;1.30;;
29218;SDS011;16421;50.202;7.852;2024-01-07T19:22:52;1.63;;;1.20;;
29218;SDS011;16421;50.202;7.852;2024-01-07T19:27:57;2.45;;;1.48;;
29218;SDS011;16421;50.202;7.852;2024-01-07T19:33:00;2.15;;;1.75;;
29218;SDS011;16421;50.202;7.852;2024-01-07T19:38:04;2.17;;;1.58;;
29218;SDS011;16421;50.202;7.852;2024-01-07T19:43:10;2.38;;;1.73;;
29218;SDS011;16421;50.202;7.852;2024-01-07T19:48:13;1.70;;;1.40;;
29218;SDS011;16421;50.202;7.852;2024-01-07T19:53:16;1.75;;;1.52;;
29218;SDS011;16421;50.202;7.852;2024-01-07T19:58:24;2.25;;;1.30;;
29218;SDS011;16421;50.202;7.852;2024-01-07T20:03:28;1.92;;;1.55;;
29218;SDS011;16421;50.202;7.852;2024-01-07T20:08:32;1.80;;;1.30;;
29218;SDS011;16421;50.202;7.852;2024-01-07T20:13:37;1.30;;;1.20;;
29218;SDS011;16421;50.202;7.852;2024-01-07T20:18:41;1.48;;;1.30;;
29218;SDS011;16421;50.202;7.852;2024-01-07T20:23:44;1.63;;;1.35;;
29218;SDS011;16421;50.202;7.852;2024-01-07T20:28:49;1.20;;;1.10;;
29218;SDS011;16421;50.202;7.852;2024-01-07T20:33:54;1.77;;;1.42;;
29218;SDS011;16421;50.202;7.852;2024-01-07T20:38:58;1.75;;;1.23;;
29218;SDS011;16421;50.202;7.852;2024-01-07T20:44:03;1.45;;;1.27;;
29218;SDS011;16421;50.202;7.852;2024-01-07T20:49:07;2.08;;;1.27;;
29218;SDS011;16421;50.202;7.852;2024-01-07T20:54:10;1.85;;;1.20;;
29218;SDS011;16421;50.202;7.852;2024-01-07T20:59:15;1.13;;;1.00;;
29218;SDS011;16421;50.202;7.852;2024-01-07T21:04:18;1.95;;;1.60;;
29218;SDS011;16421;50.202;7.852;2024-01-07T21:09:21;1.50;;;1.40;;
29218;SDS011;16421;50.202;7.852;2024-01-07T21:14:26;1.83;;;1.42;;
29218;SDS011;16421;50.202;7.852;2024-01-07T21:19:29;1.70;;;1.40;;
29218;SDS011;16421;50.202;7.852;2024-01-07T21:24:32;2.17;;;1.60;;
29218;SDS011;16421;50.202;7.852;2024-01-07T21:29:37;1.45;;;1.30;;
29218;SDS011;16421;50.202;7.852;2024-01-07T21:34:41;1.55;;;1.45;;
29218;SDS011;16421;50.202;7.852;2024-01-07T21:39:44;1.80;;;1.60;;
29218;SDS011;16421;50.202;7.852;2024-01-07T21:44:50;2.15;;;1.80;;
29218;SDS011;16421;50.202;7.852;2024-01-07T21:49:54;1.63;;;1.45;;
29218;SDS011;16421;50.202;7.852;2024-01-07T21:54:58;1.77;;;1.58;;
29218;SDS011;16421;50.202;7.852;2024-01-07T22:00:02;1.55;;;1.45;;
29218;SDS011;16421;50.202;7.852;2024-01-07T22:05:10;1.30;;;1.20;;
29218;SDS011;16421;50.202;7.852;2024-01-07T22:10:13;1.58;;;1.48;;
29218;SDS011;16421;50.202;7.852;2024-01-07T22:15:18;2.00;;;1.40;;
29218;SDS011;16421;50.202;7.852;2024-01-07T22:20:22;1.50;;;1.40;;
29218;SDS011;16421;50.202;7.852;2024-01-07T22:25:25;2.00;;;1.60;;
29218;SDS011;16421;50.202;7.852;2024-01-07T22:30:30;1.60;;;1.50;;
29218;SDS011;16421;50.202;7.852;2024-01-07T22:35:33;2.20;;;1.85;;
29218;SDS011;16421;50.202;7.852;2024-01-07T22:40:36;2.40;;;1.95;;
29218;SDS011;16421;50.202;7.852;2024-01-07T22:45:42;4.15;;;1.70;;
29218;SDS011;16421;50.202;7.852;2024-01-07T22:50:45;2.17;;;1.65;;
29218;SDS011;16421;50.202;7.852;2024-01-07T22:55:49;1.65;;;1.55;;
29218;SDS011;16421;50.202;7.852;2024-01-07T23:00:53;2.97;;;1.80;;
29218;SDS011;16421;50.202;7.852;2024-01-07T23:05:57;1.48;;;1.38;;
29218;SDS011;16421;50.202;7.852;2024-01-07T23:11:00;2.03;;;1.33;;
29218;SDS011;16421;50.202;7.852;2024-01-07T23:16:06;2.42;;;1.30;;
29218;SDS011;16421;50.202;7.852;2024-01-07T23:21:09;2.00;;;1.50;;
29218;SDS011;16421;50.202;7.852;2024-01-07T23:26:12;1.90;;;1.25;;
29218;SDS011;16421;50.202;7.852;2024-01-07T23:31:17;2.03;;;1.70;;
29218;SDS011;16421;50.202;7.852;2024-01-07T23:36:20;1.35;;;1.25;;
29218;SDS011;16421;50.202;7.852;2024-01-07T23:41:23;2.05;;;1.85;;
29218;SDS011;16421;50.202;7.852;2024-01-07T23:46:28;2.60;;;1.60;;
29218;SDS011;16421;50.202;7.852;2024-01-07T23:51:31;2.65;;;1.38;;
29218;SDS011;16421;50.202;7.852;2024-01-07T23:56:34;1.85;;;1.60;;
